Time;durP1;ratioP1;P1;durP2;ratioP2;P2;SDS_P1;SDS_P2;PMS_P1;PMS_P2;Temp;Humidity;BMP_temperature;BMP_pressure;BME280_temperature;BME280_humidity;BME280_pressure;Samples;Min_cycle;Max_cycle;Signal;HPM_P1;HPM_P2
2023/01/29 00:01:36;;;;;;;10.63;5.35;;;;;;;;;;6233117;23;20008;-96
2023/01/29 00:04:02;;;;;;;13.65;5.78;;;;;;;;;;6235746;23;20027;-96
2023/01/29 00:06:28;;;;;;;13.35;6.63;;;;;;;;;;6258453;23;20014;-96
2023/01/29 00:08:54;;;;;;;16.85;6.40;;;;;;;;;;6234595;23;20435;-96
2023/01/29 00:11:20;;;;;;;15.20;6.55;;;;;;;;;;6255953;23;20000;-96
2023/01/29 00:13:47;;;;;;;13.30;5.90;;;;;;;;;;6231560;23;20001;-96
2023/01/29 00:16:14;;;;;;;10.85;5.93;;;;;;;;;;6231326;23;20443;-96
2023/01/29 00:18:40;;;;;;;13.75;6.15;;;;;;;;;;6256125;23;20022;-96
2023/01/29 00:21:14;;;;;;;15.70;6.22;;;;;;;;;;6257400;23;20004;-96
2023/01/29 00:23:40;;;;;;;4.72;2.63;;;;;;;;;;6238414;23;20309;-96
2023/01/29 00:26:06;;;;;;;12.75;5.25;;;;;;;;;;6258614;23;20000;-96
2023/01/29 00:28:32;;;;;;;23.27;8.23;;;;;;;;;;6258003;23;20087;-96
2023/01/29 00:30:58;;;;;;;15.65;5.72;;;;;;;;;;6234265;23;20031;-96
2023/01/29 00:33:25;;;;;;;17.30;6.85;;;;;;;;;;6244399;23;20019;-96
2023/01/29 00:35:51;;;;;;;13.15;6.15;;;;;;;;;;6265278;23;20054;-96
2023/01/29 00:38:17;;;;;;;12.90;4.95;;;;;;;;;;6246617;22;20015;-96
2023/01/29 00:46:13;;;;;;;19.30;6.43;;;;;;;;;;6254278;22;20003;-96
2023/01/29 00:48:46;;;;;;;13.75;6.32;;;;;;;;;;6246445;22;20012;-96
2023/01/29 00:51:12;;;;;;;14.75;6.10;;;;;;;;;;6220226;23;20023;-96
2023/01/29 00:53:38;;;;;;;19.63;7.10;;;;;;;;;;6235209;23;20005;-96
2023/01/29 00:56:04;;;;;;;15.27;6.10;;;;;;;;;;6234958;23;20005;-96
2023/01/29 00:58:33;;;;;;;13.27;5.88;;;;;;;;;;6240152;23;20015;-96
2023/01/29 01:01:02;;;;;;;11.30;5.95;;;;;;;;;;6233683;23;20496;-96
2023/01/29 01:03:28;;;;;;;13.63;6.90;;;;;;;;;;6261770;23;20004;-96
2023/01/29 01:06:08;;;;;;;14.13;6.20;;;;;;;;;;6231921;23;20016;-96
2023/01/29 01:11:19;;;;;;;13.65;6.35;;;;;;;;;;6236816;22;20035;-96
2023/01/29 01:13:45;;;;;;;11.23;5.82;;;;;;;;;;6231365;23;20043;-96
2023/01/29 01:16:12;;;;;;;18.08;7.63;;;;;;;;;;6257339;23;20017;-96
2023/01/29 01:18:38;;;;;;;18.65;7.38;;;;;;;;;;6228833;23;20015;-96
2023/01/29 01:21:05;;;;;;;17.92;8.25;;;;;;;;;;6253334;23;20008;-96
2023/01/29 01:23:31;;;;;;;18.00;7.80;;;;;;;;;;6252535;23;20004;-96
2023/01/29 01:25:57;;;;;;;14.60;7.30;;;;;;;;;;6228496;23;20456;-96
2023/01/29 01:28:27;;;;;;;14.73;6.90;;;;;;;;;;6234498;22;20006;-96
2023/01/29 01:30:54;;;;;;;17.50;7.85;;;;;;;;;;6264224;23;20044;-96
2023/01/29 01:33:20;;;;;;;18.52;7.85;;;;;;;;;;6254548;23;20011;-96
2023/01/29 01:35:47;;;;;;;20.40;7.10;;;;;;;;;;6255578;23;20004;-96
2023/01/29 01:38:13;;;;;;;18.30;7.45;;;;;;;;;;6229155;23;20040;-96
2023/01/29 01:40:43;;;;;;;20.52;8.48;;;;;;;;;;6227723;23;20061;-96
2023/01/29 01:43:09;;;;;;;22.88;8.85;;;;;;;;;;6254153;23;20063;-96
2023/01/29 01:45:36;;;;;;;16.63;7.80;;;;;;;;;;6254970;23;20011;-96
2023/01/29 01:48:05;;;;;;;17.25;7.60;;;;;;;;;;6255960;22;20008;-96
2023/01/29 01:50:34;;;;;;;18.83;8.43;;;;;;;;;;6229091;23;20352;-96
2023/01/29 01:53:08;;;;;;;17.25;8.05;;;;;;;;;;6227408;23;20046;-96
2023/01/29 01:55:35;;;;;;;18.05;8.15;;;;;;;;;;6227460;23;20083;-96
2023/01/29 01:58:04;;;;;;;16.98;7.68;;;;;;;;;;6228385;23;20011;-96
2023/01/29 02:00:30;;;;;;;24.75;9.23;;;;;;;;;;6229425;23;20039;-96
2023/01/29 02:11:23;;;;;;;22.92;8.57;;;;;;;;;;6259268;23;20015;-96
2023/01/29 02:13:52;;;;;;;19.00;8.55;;;;;;;;;;6206674;23;20027;-96
2023/01/29 02:16:26;;;;;;;19.83;8.15;;;;;;;;;;6233407;23;20041;-96
2023/01/29 02:18:52;;;;;;;19.33;7.93;;;;;;;;;;6233638;23;20001;-96
2023/01/29 02:21:24;;;;;;;20.08;8.95;;;;;;;;;;6208086;23;20445;-96
2023/01/29 02:24:08;;;;;;;14.02;5.82;;;;;;;;;;6233166;23;20008;-96
2023/01/29 02:26:44;;;;;;;18.25;8.90;;;;;;;;;;6231927;23;20011;-96
2023/01/29 02:29:24;;;;;;;20.80;8.77;;;;;;;;;;6232397;23;20017;-96
2023/01/29 02:32:00;;;;;;;17.80;8.77;;;;;;;;;;6232928;23;20004;-96
2023/01/29 02:37:24;;;;;;;18.83;9.25;;;;;;;;;;6258865;23;20031;-96
2023/01/29 02:40:13;;;;;;;20.77;8.75;;;;;;;;;;6234329;23;20004;-96
2023/01/29 02:42:44;;;;;;;18.23;8.77;;;;;;;;;;6232503;23;20018;-96
2023/01/29 02:45:16;;;;;;;19.80;9.48;;;;;;;;;;6232437;23;20451;-96
2023/01/29 02:47:59;;;;;;;20.25;9.85;;;;;;;;;;6231851;23;20367;-96
2023/01/29 02:50:31;;;;;;;21.30;8.93;;;;;;;;;;6233076;22;20467;-96
2023/01/29 02:53:02;;;;;;;21.27;9.55;;;;;;;;;;6231691;23;20004;-96
2023/01/29 02:55:47;;;;;;;19.85;9.13;;;;;;;;;;6257009;23;20487;-96
2023/01/29 02:58:32;;;;;;;21.83;9.38;;;;;;;;;;6255874;23;20011;-96
2023/01/29 03:01:09;;;;;;;23.52;8.38;;;;;;;;;;6256934;23;20034;-96
2023/01/29 03:03:40;;;;;;;22.30;9.95;;;;;;;;;;6229798;23;20012;-96
2023/01/29 03:06:18;;;;;;;21.98;9.07;;;;;;;;;;6255489;23;20058;-96
2023/01/29 03:08:55;;;;;;;23.80;9.85;;;;;;;;;;6255041;23;20000;-96
2023/01/29 03:11:21;;;;;;;24.33;10.85;;;;;;;;;;6254563;23;20008;-96
2023/01/29 03:13:50;;;;;;;22.33;10.48;;;;;;;;;;6230138;23;20146;-96
2023/01/29 03:16:20;;;;;;;23.92;9.18;;;;;;;;;;6255429;23;20007;-96
2023/01/29 03:18:51;;;;;;;23.25;10.77;;;;;;;;;;6260064;23;20008;-96
2023/01/29 03:32:27;;;;;;;26.73;11.75;;;;;;;;;;6257111;23;20016;-96
2023/01/29 03:34:57;;;;;;;11.57;6.68;;;;;;;;;;6256210;23;20001;-96
2023/01/29 03:37:31;;;;;;;25.30;12.70;;;;;;;;;;6255405;23;20382;-96
2023/01/29 03:39:57;;;;;;;26.88;11.95;;;;;;;;;;6256851;23;20317;-96
2023/01/29 03:42:29;;;;;;;24.50;10.15;;;;;;;;;;6232110;23;20019;-96
2023/01/29 03:44:55;;;;;;;28.70;12.77;;;;;;;;;;6257383;23;20012;-96
2023/01/29 03:47:21;;;;;;;22.33;10.23;;;;;;;;;;6258275;23;20062;-96
2023/01/29 03:49:50;;;;;;;24.52;10.82;;;;;;;;;;6258529;22;20499;-96
2023/01/29 03:52:40;;;;;;;19.27;9.40;;;;;;;;;;6260162;23;20004;-96
2023/01/29 03:55:12;;;;;;;30.75;12.90;;;;;;;;;;6268475;22;20011;-96
2023/01/29 03:57:41;;;;;;;28.85;13.70;;;;;;;;;;6273455;22;20009;-95
2023/01/29 04:00:20;;;;;;;26.08;13.32;;;;;;;;;;6273891;22;19994;-96
2023/01/29 04:02:49;;;;;;;29.90;14.20;;;;;;;;;;6249093;22;20036;-96
2023/01/29 04:05:19;;;;;;;31.02;10.13;;;;;;;;;;6269384;22;20043;-96
2023/01/29 04:07:45;;;;;;;26.42;11.07;;;;;;;;;;6267309;22;20009;-96
2023/01/29 04:10:14;;;;;;;34.70;14.38;;;;;;;;;;6258151;23;20023;-96
2023/01/29 04:12:44;;;;;;;22.15;11.05;;;;;;;;;;6255842;23;20000;-96
2023/01/29 04:15:14;;;;;;;31.77;13.95;;;;;;;;;;6255312;23;20074;-96
2023/01/29 04:17:41;;;;;;;33.30;15.68;;;;;;;;;;6254668;23;20333;-96
2023/01/29 04:20:08;;;;;;;31.17;12.35;;;;;;;;;;6253526;23;20011;-96
2023/01/29 04:22:36;;;;;;;26.38;13.13;;;;;;;;;;6254365;23;20420;-96
2023/01/29 04:25:07;;;;;;;27.90;12.75;;;;;;;;;;6255072;23;20008;-96
2023/01/29 04:27:45;;;;;;;33.63;14.57;;;;;;;;;;6229093;23;20056;-96
2023/01/29 04:30:12;;;;;;;34.78;15.23;;;;;;;;;;6228830;23;20380;-96
2023/01/29 04:32:38;;;;;;;33.17;15.35;;;;;;;;;;6228382;23;20062;-96
2023/01/29 04:35:17;;;;;;;29.30;13.43;;;;;;;;;;6253804;23;20004;-96
2023/01/29 04:37:47;;;;;;;28.15;12.82;;;;;;;;;;6253518;23;20012;-96
2023/01/29 04:40:26;;;;;;;29.08;13.85;;;;;;;;;;6253563;23;20074;-95
2023/01/29 04:43:04;;;;;;;30.73;14.23;;;;;;;;;;6252767;23;20011;-96
2023/01/29 04:45:39;;;;;;;15.45;7.50;;;;;;;;;;6253373;23;20340;-96
2023/01/29 04:48:05;;;;;;;36.67;13.95;;;;;;;;;;6227755;23;20012;-96
2023/01/29 04:50:34;;;;;;;29.25;13.38;;;;;;;;;;6229592;22;20019;-96
2023/01/29 04:53:07;;;;;;;30.95;13.60;;;;;;;;;;6253880;23;20412;-96
2023/01/29 04:55:43;;;;;;;26.63;11.10;;;;;;;;;;6253517;23;20030;-96
2023/01/29 04:58:26;;;;;;;34.92;14.52;;;;;;;;;;6253287;23;20079;-96
2023/01/29 05:00:53;;;;;;;32.67;14.40;;;;;;;;;;6253081;23;20004;-96
2023/01/29 05:03:22;;;;;;;25.60;11.95;;;;;;;;;;6254420;23;20095;-95
2023/01/29 05:05:49;;;;;;;36.47;14.45;;;;;;;;;;6255338;23;20032;-95
2023/01/29 05:08:17;;;;;;;36.33;14.65;;;;;;;;;;6229936;23;20016;-96
2023/01/29 05:10:44;;;;;;;33.28;14.52;;;;;;;;;;6254766;23;20460;-95
2023/01/29 05:13:12;;;;;;;37.33;15.90;;;;;;;;;;6254568;23;20027;-96
2023/01/29 05:15:41;;;;;;;29.40;14.55;;;;;;;;;;6228592;23;20008;-96
2023/01/29 05:18:07;;;;;;;40.03;16.58;;;;;;;;;;6253731;23;20011;-96
2023/01/29 05:20:36;;;;;;;38.65;15.70;;;;;;;;;;6254394;23;20008;-96
2023/01/29 05:23:02;;;;;;;39.97;13.00;;;;;;;;;;6227896;23;20015;-96
2023/01/29 05:25:29;;;;;;;35.63;15.63;;;;;;;;;;6252433;23;20000;-96
2023/01/29 05:30:40;;;;;;;33.88;13.35;;;;;;;;;;6253921;23;20047;-96
2023/01/29 05:33:17;;;;;;;37.75;16.67;;;;;;;;;;6226781;23;20393;-96
2023/01/29 05:35:44;;;;;;;36.15;15.05;;;;;;;;;;6252862;23;20015;-96
2023/01/29 05:38:10;;;;;;;38.53;14.18;;;;;;;;;;6251755;23;20074;-96
2023/01/29 05:40:36;;;;;;;32.70;13.23;;;;;;;;;;6227041;23;20005;-96
2023/01/29 05:43:03;;;;;;;29.17;12.25;;;;;;;;;;6253734;23;20424;-96
2023/01/29 05:45:29;;;;;;;27.58;11.73;;;;;;;;;;6252969;23;20091;-96
2023/01/29 05:47:59;;;;;;;35.03;13.60;;;;;;;;;;6252176;23;20371;-96
2023/01/29 05:50:38;;;;;;;35.80;14.38;;;;;;;;;;6252113;22;20023;-96
2023/01/29 05:53:05;;;;;;;42.92;15.52;;;;;;;;;;6227507;23;20004;-96
2023/01/29 05:55:31;;;;;;;29.65;14.23;;;;;;;;;;6227477;23;20008;-96
2023/01/29 05:57:58;;;;;;;33.55;14.57;;;;;;;;;;6227667;23;20011;-96
2023/01/29 06:00:25;;;;;;;31.65;13.63;;;;;;;;;;6253354;23;20054;-96
2023/01/29 06:02:51;;;;;;;33.13;15.18;;;;;;;;;;6252729;23;20008;-96
2023/01/29 06:05:17;;;;;;;30.83;13.77;;;;;;;;;;6227376;23;20436;-96
2023/01/29 06:07:44;;;;;;;31.98;13.10;;;;;;;;;;6228396;23;20329;-96
2023/01/29 06:10:14;;;;;;;30.88;13.63;;;;;;;;;;6252832;23;20011;-96
2023/01/29 06:12:40;;;;;;;25.48;11.52;;;;;;;;;;6252743;23;20004;-96
2023/01/29 06:15:07;;;;;;;27.30;10.43;;;;;;;;;;6252411;23;20051;-96
2023/01/29 06:17:33;;;;;;;27.55;13.30;;;;;;;;;;6227989;23;20062;-96
2023/01/29 06:19:59;;;;;;;27.60;12.70;;;;;;;;;;6227977;23;20012;-96
2023/01/29 06:22:25;;;;;;;31.02;12.52;;;;;;;;;;6252595;23;20070;-96
2023/01/29 06:24:51;;;;;;;25.38;11.10;;;;;;;;;;6227546;23;20011;-96
2023/01/29 06:27:17;;;;;;;27.05;12.90;;;;;;;;;;6227605;23;20056;-96
2023/01/29 06:29:43;;;;;;;33.25;13.45;;;;;;;;;;6227138;23;20042;-96
2023/01/29 06:32:09;;;;;;;37.75;15.13;;;;;;;;;;6252976;23;19996;-96
2023/01/29 06:34:35;;;;;;;20.42;8.70;;;;;;;;;;6252189;23;20007;-96
2023/01/29 06:37:02;;;;;;;32.00;15.07;;;;;;;;;;6252361;23;20495;-96
2023/01/29 06:39:28;;;;;;;23.20;7.95;;;;;;;;;;6251421;23;20008;-96
2023/01/29 06:41:54;;;;;;;36.03;15.68;;;;;;;;;;6226454;23;20012;-96
2023/01/29 06:44:20;;;;;;;28.40;12.77;;;;;;;;;;6228015;23;20425;-96
2023/01/29 06:46:46;;;;;;;34.38;15.65;;;;;;;;;;6252101;23;20004;-96
2023/01/29 06:49:12;;;;;;;39.08;14.18;;;;;;;;;;6228554;22;20381;-96
2023/01/29 06:51:38;;;;;;;41.85;17.88;;;;;;;;;;6201667;23;20321;-96
2023/01/29 06:54:07;;;;;;;48.72;18.83;;;;;;;;;;6202400;23;20012;-96
2023/01/29 06:56:33;;;;;;;39.25;17.17;;;;;;;;;;6228252;23;20012;-96
2023/01/29 06:58:59;;;;;;;51.90;20.30;;;;;;;;;;6204659;23;20380;-96
2023/01/29 07:01:25;;;;;;;45.65;19.48;;;;;;;;;;6231062;23;20015;-96
2023/01/29 07:03:51;;;;;;;31.02;13.68;;;;;;;;;;6205666;23;20032;-96
2023/01/29 07:06:17;;;;;;;32.92;12.88;;;;;;;;;;6207307;23;20012;-96
2023/01/29 07:08:44;;;;;;;28.42;11.07;;;;;;;;;;6208949;23;20036;-96
2023/01/29 07:11:11;;;;;;;31.48;14.52;;;;;;;;;;6219730;22;20000;-96
2023/01/29 07:13:37;;;;;;;33.22;15.15;;;;;;;;;;6224025;22;19988;-96
2023/01/29 07:16:04;;;;;;;44.50;16.13;;;;;;;;;;6248732;22;20007;-96
2023/01/29 07:18:30;;;;;;;34.97;14.35;;;;;;;;;;6248866;22;19988;-95
2023/01/29 07:20:57;;;;;;;35.97;15.00;;;;;;;;;;6243175;23;20012;-96
2023/01/29 07:23:23;;;;;;;25.70;11.10;;;;;;;;;;6215759;23;20015;-96
2023/01/29 07:25:49;;;;;;;26.20;11.13;;;;;;;;;;6204463;23;20012;-96
2023/01/29 07:28:16;;;;;;;29.42;12.15;;;;;;;;;;6228206;23;20043;-96
2023/01/29 07:30:43;;;;;;;41.30;18.02;;;;;;;;;;6202397;23;20019;-96
2023/01/29 07:33:09;;;;;;;37.60;12.68;;;;;;;;;;6202272;23;20329;-96
2023/01/29 07:35:37;;;;;;;39.28;12.27;;;;;;;;;;6225633;23;20034;-96
2023/01/29 07:38:03;;;;;;;26.63;12.02;;;;;;;;;;6201562;23;20064;-96
2023/01/29 07:40:29;;;;;;;55.00;18.00;;;;;;;;;;6227106;23;20008;-96
2023/01/29 07:43:03;;;;;;;40.17;17.25;;;;;;;;;;6203222;23;20390;-96
2023/01/29 07:45:29;;;;;;;20.10;9.43;;;;;;;;;;6228013;23;20515;-96
2023/01/29 07:47:55;;;;;;;31.35;14.07;;;;;;;;;;6203226;23;20452;-96
2023/01/29 07:50:22;;;;;;;27.48;13.05;;;;;;;;;;6230244;22;20012;-96
2023/01/29 07:52:48;;;;;;;32.60;15.20;;;;;;;;;;6255038;23;20079;-96
2023/01/29 07:55:15;;;;;;;43.63;15.82;;;;;;;;;;6254104;23;20000;-96
2023/01/29 07:57:41;;;;;;;19.83;8.85;;;;;;;;;;6253701;23;20454;-96
2023/01/29 08:00:10;;;;;;;32.92;15.55;;;;;;;;;;6229083;23;20459;-96
2023/01/29 08:02:36;;;;;;;29.88;13.90;;;;;;;;;;6253664;23;20424;-96
2023/01/29 08:05:02;;;;;;;41.30;19.23;;;;;;;;;;6229165;23;20019;-96
2023/01/29 08:07:28;;;;;;;32.25;11.45;;;;;;;;;;6253088;23;20058;-96
2023/01/29 08:09:54;;;;;;;39.78;17.00;;;;;;;;;;6229211;23;20018;-96
2023/01/29 08:12:20;;;;;;;46.30;17.65;;;;;;;;;;6260134;23;20365;-96
2023/01/29 08:14:49;;;;;;;42.15;20.15;;;;;;;;;;6228828;23;20317;-96
2023/01/29 08:17:15;;;;;;;36.33;13.88;;;;;;;;;;6228304;23;20005;-96
2023/01/29 08:19:41;;;;;;;36.38;15.23;;;;;;;;;;6228419;23;20043;-96
2023/01/29 08:22:07;;;;;;;25.60;10.93;;;;;;;;;;6227767;23;20090;-96
2023/01/29 08:24:33;;;;;;;48.05;20.17;;;;;;;;;;6228462;23;19999;-96
2023/01/29 08:26:59;;;;;;;31.75;14.77;;;;;;;;;;6254021;23;20008;-96
2023/01/29 08:29:25;;;;;;;16.88;8.63;;;;;;;;;;6254441;23;20004;-96
2023/01/29 08:31:51;;;;;;;48.53;22.15;;;;;;;;;;6228892;23;20015;-96
2023/01/29 08:34:18;;;;;;;33.63;14.02;;;;;;;;;;6253992;23;20000;-96
2023/01/29 08:36:44;;;;;;;25.02;12.55;;;;;;;;;;6254777;23;20004;-96
2023/01/29 08:39:10;;;;;;;30.45;12.57;;;;;;;;;;6231253;23;20004;-96
2023/01/29 08:41:36;;;;;;;40.92;16.65;;;;;;;;;;6255507;23;20008;-96
2023/01/29 08:44:03;;;;;;;45.42;18.90;;;;;;;;;;6229946;23;20011;-96
2023/01/29 08:46:30;;;;;;;53.47;21.55;;;;;;;;;;6238237;23;20384;-96
2023/01/29 08:48:56;;;;;;;38.42;16.45;;;;;;;;;;6242013;23;20008;-96
2023/01/29 08:51:29;;;;;;;38.38;17.27;;;;;;;;;;6246020;22;20012;-96
2023/01/29 08:53:56;;;;;;;30.45;14.73;;;;;;;;;;6266805;23;20411;-96
2023/01/29 08:56:25;;;;;;;36.83;17.63;;;;;;;;;;6268038;23;20011;-96
2023/01/29 08:58:54;;;;;;;35.20;16.67;;;;;;;;;;6240505;23;20020;-96
2023/01/29 09:01:23;;;;;;;28.27;14.90;;;;;;;;;;6240443;23;20424;-96
2023/01/29 09:03:55;;;;;;;35.00;15.13;;;;;;;;;;6237101;23;20004;-96
2023/01/29 09:06:21;;;;;;;42.95;18.92;;;;;;;;;;6265928;23;20031;-96
2023/01/29 09:08:50;;;;;;;48.33;18.48;;;;;;;;;;6264442;23;20066;-96
2023/01/29 09:11:17;;;;;;;36.40;15.27;;;;;;;;;;6265151;22;20012;-96
2023/01/29 09:13:45;;;;;;;22.45;10.20;;;;;;;;;;6266283;23;20008;-96
2023/01/29 09:16:11;;;;;;;47.20;19.27;;;;;;;;;;6261356;23;20036;-96
2023/01/29 09:18:37;;;;;;;35.75;13.80;;;;;;;;;;6230262;23;20019;-96
2023/01/29 09:21:03;;;;;;;44.85;19.30;;;;;;;;;;6229611;23;20420;-96
2023/01/29 09:23:30;;;;;;;50.97;21.63;;;;;;;;;;6229486;23;20008;-96
2023/01/29 09:25:58;;;;;;;54.10;21.73;;;;;;;;;;6231767;23;20042;-96
2023/01/29 09:28:24;;;;;;;31.23;13.88;;;;;;;;;;6255949;23;20007;-96
2023/01/29 09:30:51;;;;;;;28.38;12.40;;;;;;;;;;6230147;23;20013;-96
2023/01/29 09:33:17;;;;;;;33.60;14.35;;;;;;;;;;6256775;23;20055;-96
2023/01/29 09:35:46;;;;;;;46.00;18.02;;;;;;;;;;6229593;23;20004;-96
2023/01/29 09:38:13;;;;;;;43.08;18.08;;;;;;;;;;6252822;23;20310;-96
2023/01/29 09:40:51;;;;;;;40.05;17.60;;;;;;;;;;6252714;23;20008;-96
2023/01/29 09:43:23;;;;;;;38.90;17.73;;;;;;;;;;6252535;23;20009;-96
2023/01/29 09:45:55;;;;;;;40.20;18.17;;;;;;;;;;6252644;23;20095;-96
2023/01/29 09:48:24;;;;;;;41.70;14.60;;;;;;;;;;6253273;23;20004;-96
2023/01/29 09:50:53;;;;;;;35.00;10.77;;;;;;;;;;6229358;22;20008;-96
2023/01/29 09:53:24;;;;;;;34.40;14.00;;;;;;;;;;6253302;23;20004;-96
2023/01/29 09:55:52;;;;;;;27.35;11.25;;;;;;;;;;6253949;23;20004;-96
2023/01/29 09:58:18;;;;;;;39.70;13.88;;;;;;;;;;6253522;23;20508;-96
2023/01/29 10:00:44;;;;;;;47.40;18.25;;;;;;;;;;6253699;23;20061;-96
2023/01/29 10:03:20;;;;;;;28.08;12.52;;;;;;;;;;6252607;23;20011;-96
2023/01/29 10:05:49;;;;;;;36.63;18.45;;;;;;;;;;6254063;23;20019;-96
2023/01/29 10:08:18;;;;;;;45.33;14.63;;;;;;;;;;6253653;23;20015;-96
2023/01/29 10:11:17;;;;;;;29.75;12.75;;;;;;;;;;6235630;23;20081;-96
2023/01/29 10:14:02;;;;;;;35.83;14.88;;;;;;;;;;6235276;23;20030;-96
2023/01/29 10:16:33;;;;;;;21.25;10.80;;;;;;;;;;6259631;23;20004;-96
2023/01/29 10:19:18;;;;;;;45.05;19.33;;;;;;;;;;6262748;23;20007;-96
2023/01/29 10:21:58;;;;;;;33.85;16.70;;;;;;;;;;6264141;23;20052;-96
2023/01/29 10:24:27;;;;;;;23.80;10.48;;;;;;;;;;6274044;22;19999;-96
2023/01/29 10:26:54;;;;;;;48.25;15.70;;;;;;;;;;6274349;22;20055;-96
2023/01/29 10:29:22;;;;;;;28.88;13.80;;;;;;;;;;6274444;22;19992;-96
2023/01/29 10:31:52;;;;;;;41.63;17.67;;;;;;;;;;6249652;22;20000;-96
2023/01/29 10:34:31;;;;;;;37.70;17.85;;;;;;;;;;6274290;22;19988;-96
2023/01/29 10:36:57;;;;;;;52.42;20.33;;;;;;;;;;6271291;22;20012;-96
2023/01/29 10:39:24;;;;;;;45.65;17.10;;;;;;;;;;6263427;23;20015;-96
2023/01/29 10:42:00;;;;;;;35.55;15.55;;;;;;;;;;6261505;23;19996;-96
2023/01/29 10:44:35;;;;;;;49.03;21.20;;;;;;;;;;6235710;23;20076;-96
2023/01/29 10:47:17;;;;;;;47.83;20.92;;;;;;;;;;6260644;23;20008;-96
2023/01/29 10:49:52;;;;;;;41.78;18.75;;;;;;;;;;6261641;22;20004;-96
2023/01/29 10:52:44;;;;;;;32.60;12.85;;;;;;;;;;6237528;23;20023;-96
2023/01/29 10:55:24;;;;;;;36.05;16.60;;;;;;;;;;6264634;23;20008;-96
2023/01/29 10:57:55;;;;;;;30.83;12.65;;;;;;;;;;6265514;23;20005;-96
2023/01/29 11:00:22;;;;;;;29.90;14.82;;;;;;;;;;6266297;23;20083;-96
2023/01/29 11:02:51;;;;;;;38.90;16.88;;;;;;;;;;6266086;23;20056;-96
2023/01/29 11:05:20;;;;;;;46.92;19.00;;;;;;;;;;6266197;23;19992;-96
2023/01/29 11:07:50;;;;;;;34.88;14.70;;;;;;;;;;6266880;23;20031;-96
2023/01/29 11:10:22;;;;;;;31.52;13.45;;;;;;;;;;6267251;23;20019;-96
2023/01/29 11:12:49;;;;;;;44.40;18.67;;;;;;;;;;6263187;23;19984;-96
2023/01/29 11:15:18;;;;;;;36.00;16.80;;;;;;;;;;6267235;23;20508;-96
2023/01/29 11:18:03;;;;;;;38.88;12.93;;;;;;;;;;6267131;23;20015;-96
2023/01/29 11:20:30;;;;;;;44.03;17.42;;;;;;;;;;6267545;23;20012;-96
2023/01/29 11:23:02;;;;;;;43.95;17.50;;;;;;;;;;6241952;23;20035;-96
2023/01/29 11:25:31;;;;;;;36.08;13.25;;;;;;;;;;6242941;23;19993;-96
2023/01/29 11:28:01;;;;;;;37.85;14.80;;;;;;;;;;6214950;23;20012;-96
2023/01/29 11:30:35;;;;;;;40.55;15.63;;;;;;;;;;6240301;23;20078;-96
2023/01/29 11:33:23;;;;;;;48.83;17.45;;;;;;;;;;6239943;23;20038;-96
2023/01/29 11:35:52;;;;;;;42.50;17.83;;;;;;;;;;6240964;22;20004;-96
2023/01/29 11:38:28;;;;;;;35.90;16.27;;;;;;;;;;6215354;23;20011;-96
2023/01/29 11:41:07;;;;;;;42.35;17.52;;;;;;;;;;6215625;23;20008;-96
2023/01/29 11:43:33;;;;;;;27.65;11.15;;;;;;;;;;6242527;23;19992;-96
2023/01/29 11:46:11;;;;;;;37.20;16.17;;;;;;;;;;6241266;23;20008;-96
2023/01/29 11:48:45;;;;;;;34.63;14.15;;;;;;;;;;6242694;23;20003;-96
2023/01/29 16:06:38;;;;;;;42.17;15.68;;;;;;;;;;6236855;22;20135;-93
2023/01/29 16:09:12;;;;;;;46.88;19.17;;;;;;;;;;6231363;22;20039;-94
2023/01/29 16:12:20;;;;;;;50.58;16.95;;;;;;;;;;6228757;23;20018;-94
2023/01/29 16:14:50;;;;;;;38.15;14.70;;;;;;;;;;6222608;23;20001;-95
2023/01/29 16:17:45;;;;;;;43.05;15.95;;;;;;;;;;6223728;23;20000;-94
2023/01/29 16:20:38;;;;;;;39.53;14.50;;;;;;;;;;6227183;23;20000;-93
2023/01/29 16:23:08;;;;;;;30.67;12.38;;;;;;;;;;6226469;23;20091;-93
2023/01/29 16:26:09;;;;;;;37.33;14.75;;;;;;;;;;6225291;23;20036;-95
2023/01/29 16:29:30;;;;;;;;;;;;;;;;;;;;;
2023/01/29 16:32:18;;;;;;;;;;;;;;;;;;;;;
2023/01/29 16:38:02;;;;;;;25.10;11.15;;;;;;;;;;6156881;23;20084;-95
2023/01/29 16:40:32;;;;;;;49.05;18.55;;;;;;;;;;6213633;23;20011;-95
2023/01/29 16:43:22;;;;;;;45.03;17.33;;;;;;;;;;6227832;23;20079;-95
2023/01/29 16:46:30;;;;;;;47.60;17.02;;;;;;;;;;6228097;23;20061;-95
2023/01/29 16:49:01;;;;;;;42.45;15.38;;;;;;;;;;6137862;23;20033;-95
2023/01/29 16:51:31;;;;;;;44.35;17.08;;;;;;;;;;6160212;23;20005;-94
2023/01/29 16:54:17;;;;;;;47.15;17.27;;;;;;;;;;6199144;23;20005;-94
2023/01/29 16:56:47;;;;;;;46.45;18.33;;;;;;;;;;6226447;23;20479;-94
2023/01/29 16:59:18;;;;;;;38.88;13.25;;;;;;;;;;6226404;23;20429;-94
2023/01/29 17:01:44;;;;;;;62.40;19.23;;;;;;;;;;6227770;23;20409;-95
2023/01/29 17:04:21;;;;;;;27.85;11.63;;;;;;;;;;6202622;23;20031;-94
2023/01/29 17:06:57;;;;;;;25.00;11.38;;;;;;;;;;6226535;23;20008;-94
2023/01/29 17:09:31;;;;;;;47.53;14.57;;;;;;;;;;6223078;22;20017;-94
2023/01/29 17:12:04;;;;;;;38.47;15.57;;;;;;;;;;6222405;23;20381;-94
2023/01/29 17:14:31;;;;;;;34.08;12.63;;;;;;;;;;6221172;23;20032;-95
2023/01/29 17:17:06;;;;;;;54.45;18.85;;;;;;;;;;6221667;23;20079;-95
2023/01/29 17:19:37;;;;;;;40.65;15.20;;;;;;;;;;6221581;23;20421;-94
2023/01/29 17:22:17;;;;;;;42.75;14.52;;;;;;;;;;6196858;23;20013;-94
2023/01/29 17:24:50;;;;;;;25.75;12.10;;;;;;;;;;6198167;23;20008;-94
2023/01/29 17:27:39;;;;;;;64.38;23.52;;;;;;;;;;6197210;23;20019;-94
2023/01/29 17:30:08;;;;;;;47.90;17.42;;;;;;;;;;6220744;23;20009;-94
2023/01/29 17:32:34;;;;;;;40.20;18.33;;;;;;;;;;6197230;23;20432;-95
2023/01/29 17:35:00;;;;;;;56.45;19.75;;;;;;;;;;6198032;23;20011;-94
2023/01/29 17:37:27;;;;;;;63.75;25.23;;;;;;;;;;6196435;23;20005;-96
2023/01/29 17:39:55;;;;;;;43.22;18.13;;;;;;;;;;6196443;23;20008;-94
2023/01/29 17:42:21;;;;;;;54.75;23.10;;;;;;;;;;6196738;23;20009;-96
2023/01/29 17:44:52;;;;;;;51.22;19.23;;;;;;;;;;6196897;23;20016;-95
2023/01/29 18:00:13;;;;;;;;;;;;;;;;;;;;;
2023/01/29 18:03:18;;;;;;;;;;;;;;;;;;;;;
2023/01/29 18:09:53;;;;;;;30.83;11.43;;;;;;;;;;6120313;23;20025;-94
2023/01/29 18:12:42;;;;;;;37.67;14.75;;;;;;;;;;6132678;23;20037;-94
2023/01/29 18:15:34;;;;;;;37.38;15.10;;;;;;;;;;6191076;23;20009;-94
2023/01/29 18:18:14;;;;;;;29.05;10.00;;;;;;;;;;6222531;23;20388;-94
2023/01/29 18:21:27;;;;;;;41.78;16.05;;;;;;;;;;6223122;23;20004;-94
2023/01/29 18:26:52;;;;;;;45.28;16.00;;;;;;;;;;6221964;23;20013;-94
2023/01/29 18:29:50;;;;;;;33.58;13.98;;;;;;;;;;6196962;23;20027;-94
2023/01/29 18:35:37;;;;;;;;;;;;;;;;;;;;;
2023/01/29 18:38:25;;;;;;;31.33;12.52;;;;;;;;;;6224723;23;20402;-94
2023/01/29 18:41:16;;;;;;;;;;;;;;;;;;;;;
2023/01/29 19:06:23;;;;;;;;;;;;;;;;;;;;;
2023/01/29 19:12:59;;;;;;;28.23;9.60;;;;;;;;;;5997466;23;20034;-94
2023/01/29 19:38:07;;;;;;;28.17;9.88;;;;;;;;;;6051798;23;20023;-96
2023/01/29 19:40:59;;;;;;;31.67;11.43;;;;;;;;;;6038510;23;20066;-95
2023/01/29 19:43:40;;;;;;;20.67;10.00;;;;;;;;;;6036729;23;20086;-96
2023/01/29 19:49:50;;;;;;;25.85;10.95;;;;;;;;;;6026652;23;20059;-95
2023/01/29 19:52:34;;;;;;;34.08;13.60;;;;;;;;;;5979405;23;20022;-95
2023/01/29 19:55:22;;;;;;;41.55;15.15;;;;;;;;;;6083798;23;20005;-95
2023/01/29 19:58:09;;;;;;;41.83;14.65;;;;;;;;;;6141752;23;20026;-94
2023/01/29 20:00:44;;;;;;;36.67;14.88;;;;;;;;;;6173999;23;20068;-94
2023/01/29 20:03:22;;;;;;;38.28;13.93;;;;;;;;;;6166620;23;20061;-95
2023/01/29 20:05:51;;;;;;;23.65;10.20;;;;;;;;;;6160789;23;20447;-96
2023/01/29 20:08:45;;;;;;;31.80;13.63;;;;;;;;;;6199256;23;20017;-95
2023/01/29 20:11:21;;;;;;;44.60;16.30;;;;;;;;;;6200500;22;20295;-95
2023/01/29 20:14:05;;;;;;;29.40;11.57;;;;;;;;;;6167897;23;20040;-95
2023/01/29 20:16:31;;;;;;;42.88;13.18;;;;;;;;;;6169594;23;20008;-95
2023/01/29 20:19:19;;;;;;;38.78;14.32;;;;;;;;;;6143294;23;20005;-96
2023/01/29 20:33:52;;;;;;;38.45;14.38;;;;;;;;;;6075689;23;20072;-94
2023/01/29 20:36:30;;;;;;;33.97;13.20;;;;;;;;;;6025673;23;20007;-94
2023/01/29 20:42:10;;;;;;;26.50;11.80;;;;;;;;;;5961505;24;20017;-95
2023/01/29 20:44:44;;;;;;;44.83;12.18;;;;;;;;;;5944348;24;20017;-95
2023/01/29 20:47:15;;;;;;;34.95;13.82;;;;;;;;;;5966470;24;20099;-95
2023/01/29 20:49:45;;;;;;;33.08;13.13;;;;;;;;;;5968349;24;20122;-96
2023/01/29 20:52:21;;;;;;;28.75;10.50;;;;;;;;;;5988341;23;20018;-95
2023/01/29 21:13:05;;;;;;;25.45;9.00;;;;;;;;;;6094312;23;20046;-96
2023/01/29 21:15:47;;;;;;;;;;;;;;;;;;;;;
2023/01/29 21:18:27;;;;;;;24.88;9.98;;;;;;;;;;6075579;23;20082;-95
2023/01/29 21:27:22;;;;;;;;;;;;;;;;;;5991011;24;20479;-96
2023/01/29 21:30:14;;;;;;;30.05;7.55;;;;;;;;;;6013888;23;19973;-96
2023/01/29 21:33:09;;;;;;;22.13;6.28;;;;;;;;;;6019500;23;20015;-95
2023/01/29 21:35:38;;;;;;;31.17;12.15;;;;;;;;;;6180465;23;20004;-95
2023/01/29 21:56:30;;;;;;;27.05;11.00;;;;;;;;;;5961278;24;20015;-96
2023/01/29 21:59:22;;;;;;;22.83;7.88;;;;;;;;;;6093815;23;20005;-95
2023/01/29 22:01:52;;;;;;;20.45;8.98;;;;;;;;;;6161455;23;20368;-96